Aurora, CO (80017)

7:18 AM MDT on September 21, 2014 (GMT -0600)
Stone Ridge Park | Change Station
CLOSE
Current Station
Personal Weather Station
Location: Aurora, CO
Elevation: 5597 ft
Nearby Weather Stations

Elev 5597 ft 39.69 °N, 104.77 °W | Updated 5 seconds ago

Mostly Cloudy
Mostly Cloudy
55.0 °F
Feels Like 55.0 °F
N
0.0
Wind Variable Wind from WNW

Today
High -- | Low -- °F
--% Chance of Precip.
Yesterday
High -- | Low -- °F
Precip. -- in
6:45 AM 6:57 PM
Waning Crescent, 7% visible
Pressure 30.22 in
Visibility 10.0 miles
Clouds Scattered Clouds 6000 ft
Mostly Cloudy 12000 ft
Mostly Cloudy 22000 ft
Dew Point 46 °F
Humidity 72%
Rainfall 0.00 in
Snow Depth 0 in , 0 in , 6 in
UV 0 out of 12
Pollen 6.60 out of 12
Ozone Good
PM2.5 Moderate
Flu Activity Not available.
METAR KBKF 211258Z 27006KT 10SM SCT060 BKN120 BKN220 13/07 A3039 RMK AO2A SLP234 T01280073

More Conditions Fewer Conditions

Pressure 30.22 in
Visibility 10.0 miles
Clouds Scattered Clouds 6000 ft
Mostly Cloudy 12000 ft
Mostly Cloudy 22000 ft
Dew Point 46 °F
Humidity 72%
Rainfall 0.00 in
Snow Depth 0 in , 0 in , 6 in
UV 0 out of 12
Pollen 6.60 out of 12
Ozone Good
PM2.5 Moderate
Flu Activity Not available.
METAR KBKF 211258Z 27006KT 10SM SCT060 BKN120 BKN220 13/07 A3039 RMK AO2A SLP234 T01280073

More Conditions Fewer Conditions

10-Day Weather Forecast

Almanac

Astronomy

Sep. 21, 2014 Rise Set
Actual Time 6:45 AM MDT 6:57 PM MDT
Civil Twilight 6:18 AM MDT 7:24 PM MDT
Nautical Twilight 5:47 AM MDT 7:56 PM MDT
Astronomical Twilight 5:15 AM MDT 8:28 PM MDT
Moon 4:22 AM MDT 5:35 PM MDT
Length of Visible Light 13h 05m
Length of Day
12h 11m
Tomorrow will be 2m 35s shorter.
Waning Crescent, 7% of the Moon is Illuminated
Today
Waning Crescent
Sep 24
New
Oct 1
First Quarter
Oct 8
Full
Oct 15
Last Quarter

Today's Extremes

State Highs State Lows

Community

WunderPhotos

Upload Photos

1,755,136 photos uploaded!

WunderBlogs® & News

Nearby

Air Quality

  Air Quality AQ Index Pollutant
Yesterday Moderate
OZONE
Yesterday Good
PM10
Current Moderate
PM2.5
Current Good
OZONE
Sunday Good
OZONE
Sunday Good
PM2.5
Monday Moderate
PM2.5
Monday Good
OZONE

Snow Depth

Station Depth Elevation
Culebra #2 0 in 10500 ft
Kiln 0 in 9600 ft
Rawah 6 in 9020 ft
South Colony 0 in 10800 ft
Michigan Creek 0 in 10600 ft

Earthquake Activity

City Distance Mag. Time & Date
No recent earthquake activity has been reported nearby.
Minimum magnitude displayed is 2.5.

Coastal Water Temperatures

Place Temperature
No Stations Reporting

Nearby Weather Stations